Time;durP1;ratioP1;P1;durP2;ratioP2;P2;SDS_P1;SDS_P2;PMS_P1;PMS_P2;Temp;Humidity;BMP_temperature;BMP_pressure;BME280_temperature;BME280_humidity;BME280_pressure;Samples;Min_cycle;Max_cycle;Signal;HPM_P1;HPM_P2
2023/07/29 00:00:12;;;;;;;;;;;17.50;99.90;;;;;;7325187;19;10803;-90
2023/07/29 00:02:41;;;;;;;;;;;17.50;99.90;;;;;;7324799;19;10209;-89
2023/07/29 00:05:11;;;;;;;;;;;17.50;99.90;;;;;;7324601;19;9254;-89
2023/07/29 00:07:40;;;;;;;;;;;17.60;99.90;;;;;;7322466;19;9237;-90
2023/07/29 00:10:10;;;;;;;;;;;17.50;99.90;;;;;;7322430;19;9274;-90
2023/07/29 00:12:39;;;;;;;;;;;17.50;99.90;;;;;;7323249;19;9289;-89
2023/07/29 00:15:12;;;;;;;;;;;17.50;99.90;;;;;;7324714;19;9260;-89
2023/07/29 00:17:42;;;;;;;;;;;17.50;99.90;;;;;;7325126;19;10693;-90
2023/07/29 00:20:11;;;;;;;;;;;17.40;99.90;;;;;;7325073;19;9327;-89
2023/07/29 00:22:40;;;;;;;;;;;17.40;99.90;;;;;;7322624;19;9876;-88
2023/07/29 00:25:10;;;;;;;;;;;17.40;99.90;;;;;;7324110;19;10361;-90
2023/07/29 00:27:39;;;;;;;;;;;17.30;99.90;;;;;;7322992;19;9353;-90
2023/07/29 00:30:12;;;;;;;;;;;17.30;99.90;;;;;;7321477;19;9562;-89
2023/07/29 00:32:41;;;;;;;;;;;17.30;99.90;;;;;;7325378;19;9003;-89
2023/07/29 00:35:11;;;;;;;;;;;17.30;99.90;;;;;;7322362;19;9348;-89
2023/07/29 00:37:40;;;;;;;;;;;17.30;99.90;;;;;;7323632;19;9443;-89
2023/07/29 00:40:17;;;;;;;;;;;17.20;99.90;;;;;;7322294;19;9335;-90
2023/07/29 00:42:46;;;;;;;;;;;17.30;99.90;;;;;;7323872;19;9259;-89
2023/07/29 00:45:19;;;;;;;;;;;17.30;99.90;;;;;;7323394;19;9217;-90
2023/07/29 00:47:48;;;;;;;;;;;17.20;99.90;;;;;;7323298;19;9459;-90
2023/07/29 00:50:18;;;;;;;;;;;17.30;99.90;;;;;;7320827;19;9214;-89
2023/07/29 00:52:47;;;;;;;;;;;17.30;99.90;;;;;;7322061;19;9240;-90
2023/07/29 00:55:16;;;;;;;;;;;17.30;99.90;;;;;;7323386;19;9217;-89
2023/07/29 00:57:48;;;;;;;;;;;17.20;99.90;;;;;;7322779;19;9471;-89
2023/07/29 01:00:20;;;;;;;;;;;17.20;99.90;;;;;;7322116;19;10583;-90
2023/07/29 01:02:49;;;;;;;;;;;17.20;99.90;;;;;;7323212;19;9558;-90
2023/07/29 01:05:20;;;;;;;;;;;17.10;99.90;;;;;;7322177;19;9273;-89
2023/07/29 01:07:57;;;;;;;;;;;17.10;99.90;;;;;;7328630;19;9538;-90
2023/07/29 01:10:39;;;;;;;;;;;17.10;99.90;;;;;;7327948;19;9274;-89
2023/07/29 01:13:19;;;;;;;;;;;17.00;99.90;;;;;;7329699;19;9355;-90
2023/07/29 01:15:56;;;;;;;;;;;17.00;99.90;;;;;;7330133;19;9000;-90
2023/07/29 01:18:28;;;;;;;;;;;17.00;99.90;;;;;;7329200;19;9428;-90
2023/07/29 01:21:01;;;;;;;;;;;17.10;99.90;;;;;;7328811;19;9508;-90
2023/07/29 01:23:36;;;;;;;;;;;17.10;99.90;;;;;;7329344;19;9228;-90
2023/07/29 01:26:06;;;;;;;;;;;17.10;99.90;;;;;;7330364;19;10201;-90
2023/07/29 01:28:36;;;;;;;;;;;17.10;99.90;;;;;;7328272;19;9437;-90
2023/07/29 01:31:11;;;;;;;;;;;17.10;99.90;;;;;;7329166;19;9161;-90
2023/07/29 01:33:47;;;;;;;;;;;17.10;99.90;;;;;;7327330;19;9261;-91
2023/07/29 01:36:23;;;;;;;;;;;17.20;99.90;;;;;;7329371;19;9198;-90
2023/07/29 01:38:59;;;;;;;;;;;17.20;99.90;;;;;;7328818;19;9291;-89
2023/07/29 01:41:29;;;;;;;;;;;17.30;99.90;;;;;;7327312;19;9221;-90
2023/07/29 01:44:00;;;;;;;;;;;17.20;99.90;;;;;;7329201;19;9367;-90
2023/07/29 01:46:30;;;;;;;;;;;17.20;99.90;;;;;;7327124;19;9261;-91
2023/07/29 01:48:59;;;;;;;;;;;17.20;99.90;;;;;;7328181;19;9213;-90
2023/07/29 01:51:28;;;;;;;;;;;17.20;99.90;;;;;;7328603;19;9310;-90
2023/07/29 01:53:59;;;;;;;;;;;17.20;99.90;;;;;;7328108;19;9522;-89
2023/07/29 01:56:28;;;;;;;;;;;17.20;99.90;;;;;;7328348;19;9257;-89
2023/07/29 01:58:57;;;;;;;;;;;17.20;99.90;;;;;;7326768;19;8944;-89
2023/07/29 02:01:26;;;;;;;;;;;17.20;99.90;;;;;;7327867;19;9308;-89
2023/07/29 02:03:55;;;;;;;;;;;17.20;99.90;;;;;;7328276;19;9322;-91
2023/07/29 02:06:25;;;;;;;;;;;17.20;99.90;;;;;;7329465;19;9221;-89
2023/07/29 02:08:54;;;;;;;;;;;17.20;99.90;;;;;;7326437;19;9533;-90
2023/07/29 02:11:27;;;;;;;;;;;17.30;99.90;;;;;;7327771;19;9301;-89
2023/07/29 02:13:56;;;;;;;;;;;17.30;99.90;;;;;;7326102;19;9149;-90
2023/07/29 02:16:25;;;;;;;;;;;17.40;99.90;;;;;;7327018;19;9439;-88
2023/07/29 02:18:54;;;;;;;;;;;17.30;99.90;;;;;;7324888;19;9245;-90
2023/07/29 02:21:23;;;;;;;;;;;17.30;99.90;;;;;;7327308;19;9222;-90
2023/07/29 02:23:52;;;;;;;;;;;17.30;99.90;;;;;;7325780;19;9696;-89
2023/07/29 02:26:21;;;;;;;;;;;17.30;99.90;;;;;;7327041;19;9263;-89
2023/07/29 02:28:52;;;;;;;;;;;17.30;99.90;;;;;;7325860;19;9494;-90
2023/07/29 02:31:25;;;;;;;;;;;17.30;99.90;;;;;;7327145;19;9261;-90
2023/07/29 02:33:55;;;;;;;;;;;17.30;99.90;;;;;;7325198;19;8936;-90
2023/07/29 02:36:24;;;;;;;;;;;17.30;99.90;;;;;;7326561;19;9597;-89
2023/07/29 02:38:53;;;;;;;;;;;17.40;99.90;;;;;;7326218;19;8948;-89
2023/07/29 02:41:22;;;;;;;;;;;17.50;99.90;;;;;;7325463;19;9315;-90
2023/07/29 02:43:54;;;;;;;;;;;17.60;99.90;;;;;;7325730;19;9485;-91
2023/07/29 02:46:23;;;;;;;;;;;17.60;99.90;;;;;;7325000;19;9245;-90
2023/07/29 02:48:53;;;;;;;;;;;17.60;99.90;;;;;;7325405;19;9136;-91
2023/07/29 02:51:22;;;;;;;;;;;17.60;99.90;;;;;;7325737;19;9063;-90
2023/07/29 02:53:51;;;;;;;;;;;17.40;99.90;;;;;;7324041;19;9004;-91
2023/07/29 02:56:19;;;;;;;;;;;17.50;99.90;;;;;;7325343;19;9443;-90
2023/07/29 02:58:48;;;;;;;;;;;17.40;99.90;;;;;;7325136;19;9403;-90
2023/07/29 03:01:20;;;;;;;;;;;17.30;99.90;;;;;;7325527;19;9222;-90
2023/07/29 03:03:49;;;;;;;;;;;17.30;99.90;;;;;;7325291;19;10264;-90
2023/07/29 03:06:18;;;;;;;;;;;17.20;99.90;;;;;;7325788;19;9261;-90
2023/07/29 03:08:47;;;;;;;;;;;17.10;99.90;;;;;;7325360;19;10206;-90
2023/07/29 03:11:18;;;;;;;;;;;17.10;99.90;;;;;;7324435;19;9090;-89
2023/07/29 03:13:47;;;;;;;;;;;17.10;99.90;;;;;;7326631;19;9198;-90
2023/07/29 03:16:20;;;;;;;;;;;17.10;99.90;;;;;;7325516;19;9359;-91
2023/07/29 03:18:51;;;;;;;;;;;17.00;99.90;;;;;;7326242;19;9252;-90
2023/07/29 03:21:20;;;;;;;;;;;17.00;99.90;;;;;;7326885;19;9312;-90
2023/07/29 03:23:49;;;;;;;;;;;17.00;99.90;;;;;;7325854;19;9708;-90
2023/07/29 03:26:18;;;;;;;;;;;16.90;99.90;;;;;;7326231;19;9530;-89
2023/07/29 03:28:47;;;;;;;;;;;16.90;99.90;;;;;;7325047;19;9177;-90
2023/07/29 03:31:16;;;;;;;;;;;16.90;99.90;;;;;;7320208;19;9177;-90
2023/07/29 03:33:47;;;;;;;;;;;16.80;99.90;;;;;;7323905;19;9189;-90
2023/07/29 03:36:16;;;;;;;;;;;16.80;99.90;;;;;;7326149;19;9201;-91
2023/07/29 03:38:45;;;;;;;;;;;16.70;99.90;;;;;;7325405;19;9248;-90
2023/07/29 03:41:14;;;;;;;;;;;16.70;99.90;;;;;;7326702;19;9206;-90
2023/07/29 03:43:43;;;;;;;;;;;16.70;99.90;;;;;;7324930;19;9307;-89
2023/07/29 03:46:13;;;;;;;;;;;16.70;99.90;;;;;;7324264;19;9423;-91
2023/07/29 03:48:42;;;;;;;;;;;16.70;99.90;;;;;;7323756;19;9261;-90
2023/07/29 03:51:14;;;;;;;;;;;16.70;99.90;;;;;;7323108;19;9265;-90
2023/07/29 03:53:43;;;;;;;;;;;16.70;99.90;;;;;;7323096;19;11254;-90
2023/07/29 03:56:12;;;;;;;;;;;16.60;99.90;;;;;;7323727;19;9498;-89
2023/07/29 03:58:41;;;;;;;;;;;16.70;99.90;;;;;;7322396;19;9415;-89
2023/07/29 04:01:10;;;;;;;;;;;16.70;99.90;;;;;;7323925;19;9647;-90
2023/07/29 04:03:39;;;;;;;;;;;16.60;99.90;;;;;;7325019;19;9473;-91
2023/07/29 04:06:08;;;;;;;;;;;16.60;99.90;;;;;;7324936;19;9174;-89
2023/07/29 04:08:41;;;;;;;;;;;16.60;99.90;;;;;;7324770;19;9504;-90
2023/07/29 04:11:10;;;;;;;;;;;16.60;99.90;;;;;;7326943;19;9299;-89
2023/07/29 04:13:40;;;;;;;;;;;16.70;99.90;;;;;;7324924;19;9310;-90
2023/07/29 04:16:10;;;;;;;;;;;16.70;99.90;;;;;;7322982;19;10173;-91
2023/07/29 04:18:39;;;;;;;;;;;16.70;99.90;;;;;;7323976;19;9228;-90
2023/07/29 04:21:08;;;;;;;;;;;16.70;99.90;;;;;;7322379;19;9485;-88
2023/07/29 04:23:40;;;;;;;;;;;16.80;99.90;;;;;;7322560;19;8993;-90
2023/07/29 04:26:09;;;;;;;;;;;16.80;99.90;;;;;;7321951;19;9244;-90
2023/07/29 04:28:38;;;;;;;;;;;16.80;99.90;;;;;;7321280;19;9178;-90
2023/07/29 04:31:07;;;;;;;;;;;16.90;99.90;;;;;;7320039;19;9397;-90
2023/07/29 04:33:35;;;;;;;;;;;17.00;99.90;;;;;;7322426;19;9262;-90
2023/07/29 04:36:05;;;;;;;;;;;17.00;99.90;;;;;;7322622;19;9228;-90
2023/07/29 04:38:35;;;;;;;;;;;16.90;99.90;;;;;;7323593;19;10669;-90
2023/07/29 04:41:08;;;;;;;;;;;16.90;99.90;;;;;;7322056;19;10297;-89
2023/07/29 04:43:37;;;;;;;;;;;16.90;99.90;;;;;;7329460;19;9483;-90
2023/07/29 04:46:09;;;;;;;;;;;16.90;99.90;;;;;;7329600;19;9262;-90
2023/07/29 04:48:38;;;;;;;;;;;16.80;99.90;;;;;;7330520;19;9207;-90
2023/07/29 04:51:07;;;;;;;;;;;16.80;99.90;;;;;;7328513;19;9175;-90
2023/07/29 04:53:38;;;;;;;;;;;16.80;99.90;;;;;;7329942;19;9265;-90
2023/07/29 04:56:09;;;;;;;;;;;16.80;99.90;;;;;;7331359;19;10150;-91
2023/07/29 04:58:38;;;;;;;;;;;16.80;99.90;;;;;;7329245;19;9442;-90
2023/07/29 05:01:08;;;;;;;;;;;16.90;99.90;;;;;;7329595;19;9600;-91
2023/07/29 05:03:39;;;;;;;;;;;17.00;99.90;;;;;;7328804;19;9269;-89
2023/07/29 05:06:08;;;;;;;;;;;17.00;99.90;;;;;;7331050;19;9229;-91
2023/07/29 05:08:37;;;;;;;;;;;17.00;99.90;;;;;;7330753;19;9185;-89
2023/07/29 05:11:09;;;;;;;;;;;17.00;99.90;;;;;;7328010;19;9063;-90
2023/07/29 05:13:39;;;;;;;;;;;17.10;99.90;;;;;;7328508;19;9263;-90
2023/07/29 05:16:07;;;;;;;;;;;17.20;99.90;;;;;;7330956;19;9413;-91
2023/07/29 05:18:36;;;;;;;;;;;17.20;99.90;;;;;;7328837;19;9572;-90
2023/07/29 05:21:05;;;;;;;;;;;17.30;99.90;;;;;;7329647;19;9303;-89
2023/07/29 05:23:34;;;;;;;;;;;17.40;99.90;;;;;;7329247;19;9226;-90
2023/07/29 05:26:03;;;;;;;;;;;17.40;99.90;;;;;;7330642;19;9189;-92
2023/07/29 05:28:35;;;;;;;;;;;17.50;99.90;;;;;;7328489;19;9340;-90
2023/07/29 05:31:04;;;;;;;;;;;17.40;99.90;;;;;;7327311;19;9230;-90
2023/07/29 05:33:33;;;;;;;;;;;17.40;99.90;;;;;;7327258;19;9595;-91
2023/07/29 05:36:02;;;;;;;;;;;17.50;99.90;;;;;;7329272;19;9469;-91
2023/07/29 05:38:31;;;;;;;;;;;17.50;99.90;;;;;;7327342;19;9214;-90
2023/07/29 05:41:00;;;;;;;;;;;17.50;99.90;;;;;;7327992;19;8944;-90
2023/07/29 05:43:30;;;;;;;;;;;17.60;99.90;;;;;;7326681;19;9221;-90
2023/07/29 05:46:01;;;;;;;;;;;17.60;99.90;;;;;;7327210;19;10438;-90
2023/07/29 05:48:30;;;;;;;;;;;17.70;99.90;;;;;;7328167;19;9452;-91
2023/07/29 05:50:59;;;;;;;;;;;17.70;99.90;;;;;;7324731;19;9295;-89
2023/07/29 05:53:28;;;;;;;;;;;17.90;99.90;;;;;;7324080;19;10749;-90
2023/07/29 05:55:58;;;;;;;;;;;18.00;99.90;;;;;;7326010;19;9007;-91
2023/07/29 05:58:27;;;;;;;;;;;18.10;99.90;;;;;;7326596;19;9212;-90
2023/07/29 06:00:56;;;;;;;;;;;18.10;99.90;;;;;;7326471;19;9514;-90
2023/07/29 06:03:27;;;;;;;;;;;18.10;99.90;;;;;;7328039;19;9533;-90
2023/07/29 06:05:57;;;;;;;;;;;18.40;99.90;;;;;;7327898;19;9504;-89
2023/07/29 06:08:28;;;;;;;;;;;18.70;99.90;;;;;;7327090;19;9276;-89
2023/07/29 06:10:57;;;;;;;;;;;19.00;99.90;;;;;;7325756;19;9225;-90
2023/07/29 06:13:26;;;;;;;;;;;18.90;99.90;;;;;;7327312;19;9245;-89
2023/07/29 06:15:55;;;;;;;;;;;19.00;99.90;;;;;;7336347;19;9221;-90
2023/07/29 06:18:23;;;;;;;;;;;19.10;99.90;;;;;;7337211;19;9544;-90
2023/07/29 06:20:55;;;;;;;;;;;19.20;99.90;;;;;;7326833;19;9294;-90
2023/07/29 06:23:24;;;;;;;;;;;19.40;99.90;;;;;;7328334;19;9234;-91
2023/07/29 06:25:53;;;;;;;;;;;19.20;99.90;;;;;;7327610;19;9260;-89
2023/07/29 06:28:22;;;;;;;;;;;19.10;99.90;;;;;;7326812;19;9182;-90
2023/07/29 06:30:51;;;;;;;;;;;19.10;99.90;;;;;;7327544;19;9209;-90
2023/07/29 06:33:20;;;;;;;;;;;19.00;99.90;;;;;;7326451;19;9274;-91
2023/07/29 06:35:49;;;;;;;;;;;19.00;99.90;;;;;;7327209;19;9469;-90
2023/07/29 06:38:21;;;;;;;;;;;18.90;99.90;;;;;;7328654;19;9294;-89
2023/07/29 06:40:50;;;;;;;;;;;19.20;99.90;;;;;;7332939;19;9276;-90
2023/07/29 06:43:19;;;;;;;;;;;19.20;99.90;;;;;;7328444;19;9489;-90
2023/07/29 06:45:48;;;;;;;;;;;19.40;99.90;;;;;;7325845;19;9205;-90
2023/07/29 06:48:18;;;;;;;;;;;19.40;99.90;;;;;;7324321;19;9152;-89
2023/07/29 06:50:47;;;;;;;;;;;19.50;99.90;;;;;;7324655;19;10363;-90
2023/07/29 06:53:16;;;;;;;;;;;19.60;99.90;;;;;;7323612;19;9615;-90
2023/07/29 06:55:48;;;;;;;;;;;19.70;99.90;;;;;;7324703;19;9599;-90
2023/07/29 06:58:17;;;;;;;;;;;19.90;99.90;;;;;;7326243;19;9214;-91
2023/07/29 07:00:46;;;;;;;;;;;19.90;99.90;;;;;;7339866;19;9229;-90
2023/07/29 07:03:15;;;;;;;;;;;20.10;99.90;;;;;;7325248;19;9165;-90
2023/07/29 07:05:45;;;;;;;;;;;20.30;99.90;;;;;;7325925;19;9545;-90
2023/07/29 07:08:14;;;;;;;;;;;20.30;99.90;;;;;;7326486;19;9469;-91
2023/07/29 07:10:43;;;;;;;;;;;20.30;99.90;;;;;;7324719;19;9202;-90
2023/07/29 07:13:14;;;;;;;;;;;20.50;99.90;;;;;;7324108;19;9237;-90
2023/07/29 07:15:43;;;;;;;;;;;20.70;99.90;;;;;;7323927;19;9300;-90
2023/07/29 07:18:12;;;;;;;;;;;20.60;99.90;;;;;;7324181;19;9237;-89
2023/07/29 07:20:41;;;;;;;;;;;20.70;99.90;;;;;;7326050;19;9261;-90
2023/07/29 07:23:13;;;;;;;;;;;20.70;99.90;;;;;;7324527;19;9224;-90
2023/07/29 07:25:42;;;;;;;;;;;20.90;99.90;;;;;;7323489;19;9433;-89
2023/07/29 07:28:13;;;;;;;;;;;21.10;99.90;;;;;;7324402;19;9063;-90
2023/07/29 07:30:43;;;;;;;;;;;21.60;99.90;;;;;;7324415;19;9258;-89
2023/07/29 07:33:13;;;;;;;;;;;22.00;99.90;;;;;;7325547;19;9502;-89
2023/07/29 07:35:42;;;;;;;;;;;22.10;99.90;;;;;;7323438;19;9231;-90
2023/07/29 07:38:11;;;;;;;;;;;22.20;99.90;;;;;;7324730;19;9252;-90
2023/07/29 07:40:40;;;;;;;;;;;22.20;99.90;;;;;;7325477;19;9563;-90
2023/07/29 07:43:09;;;;;;;;;;;22.10;99.90;;;;;;7324522;19;8944;-90
2023/07/29 07:45:40;;;;;;;;;;;22.10;99.90;;;;;;7323577;19;9305;-90
2023/07/29 07:48:10;;;;;;;;;;;22.10;99.90;;;;;;7324198;19;9240;-90
2023/07/29 07:50:39;;;;;;;;;;;22.10;99.90;;;;;;7322935;19;9171;-90
2023/07/29 07:53:08;;;;;;;;;;;22.10;99.90;;;;;;7322044;19;9119;-88
2023/07/29 07:55:37;;;;;;;;;;;22.00;99.90;;;;;;7322756;19;9478;-90
2023/07/29 07:58:06;;;;;;;;;;;22.00;99.90;;;;;;7322462;19;10399;-89
2023/07/29 08:00:35;;;;;;;;;;;22.10;99.90;;;;;;7323135;19;9315;-90
2023/07/29 08:03:07;;;;;;;;;;;22.00;99.90;;;;;;7321664;19;10597;-90
2023/07/29 08:05:36;;;;;;;;;;;22.10;99.90;;;;;;7323539;19;9282;-90
2023/07/29 08:08:05;;;;;;;;;;;22.10;99.90;;;;;;7325739;19;9312;-90
2023/07/29 08:10:34;;;;;;;;;;;22.30;99.90;;;;;;7324623;19;9177;-90
2023/07/29 08:13:03;;;;;;;;;;;22.40;99.90;;;;;;7323718;19;9245;-90
2023/07/29 08:15:32;;;;;;;;;;;22.40;99.90;;;;;;7323808;19;9336;-89
2023/07/29 08:18:01;;;;;;;;;;;22.60;99.90;;;;;;7327985;19;10358;-90
2023/07/29 08:20:32;;;;;;;;;;;22.50;99.90;;;;;;7334058;19;9376;-90
2023/07/29 08:23:02;;;;;;;;;;;22.50;99.90;;;;;;7344303;19;9297;-90
2023/07/29 08:25:32;;;;;;;;;;;22.50;99.90;;;;;;7332466;19;9239;-90
2023/07/29 08:28:00;;;;;;;;;;;22.50;99.90;;;;;;7329628;19;8944;-89
2023/07/29 08:30:29;;;;;;;;;;;22.50;99.90;;;;;;7329643;19;9249;-90
2023/07/29 08:32:58;;;;;;;;;;;22.50;99.90;;;;;;7326915;19;9455;-90
2023/07/29 08:35:27;;;;;;;;;;;22.30;99.90;;;;;;7328392;19;11198;-89
2023/07/29 08:37:59;;;;;;;;;;;22.20;99.90;;;;;;7330133;19;9233;-90
2023/07/29 08:40:34;;;;;;;;;;;22.20;99.90;;;;;;7328410;19;8996;-90
2023/07/29 08:43:07;;;;;;;;;;;22.30;99.90;;;;;;7329759;19;11168;-90
2023/07/29 08:45:38;;;;;;;;;;;22.60;99.90;;;;;;7327680;19;9453;-89
2023/07/29 08:48:12;;;;;;;;;;;22.80;99.90;;;;;;7330592;19;9434;-90
2023/07/29 08:50:43;;;;;;;;;;;22.70;99.90;;;;;;7328168;19;12159;-89
2023/07/29 08:53:16;;;;;;;;;;;22.70;99.90;;;;;;7326565;19;9422;-90
2023/07/29 08:55:45;;;;;;;;;;;22.60;99.90;;;;;;7329172;19;9094;-90
2023/07/29 08:58:14;;;;;;;;;;;22.40;99.90;;;;;;7329056;19;9281;-90
2023/07/29 09:00:45;;;;;;;;;;;22.40;99.90;;;;;;7328344;19;9546;-89
2023/07/29 09:03:14;;;;;;;;;;;22.50;99.90;;;;;;7329384;19;10166;-91
2023/07/29 09:05:43;;;;;;;;;;;22.60;99.90;;;;;;7328021;19;9167;-90
2023/07/29 09:08:15;;;;;;;;;;;22.70;99.90;;;;;;7329828;19;9249;-90
2023/07/29 09:10:46;;;;;;;;;;;22.80;99.90;;;;;;7327740;19;8944;-89
2023/07/29 09:13:14;;;;;;;;;;;22.90;99.90;;;;;;7325818;19;9248;-90
2023/07/29 09:15:44;;;;;;;;;;;22.90;99.90;;;;;;7328693;19;9277;-89
2023/07/29 09:18:15;;;;;;;;;;;22.80;99.90;;;;;;7327351;19;9893;-91
2023/07/29 09:20:44;;;;;;;;;;;22.70;99.90;;;;;;7327410;19;9241;-91
2023/07/29 09:23:16;;;;;;;;;;;22.60;99.90;;;;;;7328849;19;9264;-89
2023/07/29 09:25:48;;;;;;;;;;;22.60;99.90;;;;;;7328358;19;9662;-90
2023/07/29 09:28:18;;;;;;;;;;;22.40;99.90;;;;;;7328141;19;9225;-91
2023/07/29 09:30:50;;;;;;;;;;;22.40;99.90;;;;;;7330058;19;9301;-89
2023/07/29 09:33:21;;;;;;;;;;;22.40;99.90;;;;;;7331165;19;9281;-90
2023/07/29 09:35:50;;;;;;;;;;;22.40;99.90;;;;;;7332431;19;9125;-91
2023/07/29 09:38:30;;;;;;;;;;;22.50;99.90;;;;;;7331829;19;9221;-91
2023/07/29 09:41:00;;;;;;;;;;;22.60;99.90;;;;;;7327888;19;9526;-90
2023/07/29 09:43:32;;;;;;;;;;;22.80;99.90;;;;;;7328495;19;9125;-89
2023/07/29 09:46:03;;;;;;;;;;;22.80;99.90;;;;;;7325870;19;9450;-90
2023/07/29 09:48:36;;;;;;;;;;;22.70;99.90;;;;;;7328374;19;9233;-89
2023/07/29 09:51:13;;;;;;;;;;;22.60;99.90;;;;;;7326104;19;10506;-90
2023/07/29 09:53:46;;;;;;;;;;;22.60;99.90;;;;;;7325722;19;9470;-90
2023/07/29 09:56:19;;;;;;;;;;;22.60;99.90;;;;;;7325048;19;9540;-90
2023/07/29 09:58:48;;;;;;;;;;;22.50;99.90;;;;;;7326576;19;9331;-89
2023/07/29 10:01:19;;;;;;;;;;;22.60;99.90;;;;;;7328239;19;9198;-90
2023/07/29 10:03:48;;;;;;;;;;;22.60;99.90;;;;;;7330581;19;9134;-90
2023/07/29 10:06:18;;;;;;;;;;;22.60;99.90;;;;;;7330764;19;9469;-90
2023/07/29 10:08:51;;;;;;;;;;;22.80;99.90;;;;;;7329770;19;9450;-91
2023/07/29 10:11:24;;;;;;;;;;;22.80;99.90;;;;;;7326585;19;9574;-90
2023/07/29 10:13:55;;;;;;;;;;;22.80;99.90;;;;;;7327408;19;9135;-90
2023/07/29 10:16:25;;;;;;;;;;;22.90;99.90;;;;;;7326542;19;9415;-90
2023/07/29 10:18:56;;;;;;;;;;;23.10;99.90;;;;;;7323979;19;10865;-90
2023/07/29 10:21:26;;;;;;;;;;;23.10;99.90;;;;;;7328292;19;10443;-92
2023/07/29 10:24:05;;;;;;;;;;;23.10;99.80;;;;;;7328134;19;9304;-91
2023/07/29 10:26:36;;;;;;;;;;;22.90;99.90;;;;;;7332656;19;9478;-90
2023/07/29 10:29:09;;;;;;;;;;;22.80;99.90;;;;;;7348450;19;8944;-90
2023/07/29 10:31:45;;;;;;;;;;;22.90;99.90;;;;;;7329480;19;9233;-91
2023/07/29 10:34:16;;;;;;;;;;;23.00;99.90;;;;;;7328536;19;9118;-90
2023/07/29 10:36:46;;;;;;;;;;;23.20;99.90;;;;;;7327217;19;9245;-91
2023/07/29 10:39:17;;;;;;;;;;;23.30;99.50;;;;;;7326680;19;9230;-91
2023/07/29 10:42:00;;;;;;;;;;;23.40;99.10;;;;;;7326159;19;9327;-90
2023/07/29 10:44:52;;;;;;;;;;;23.50;99.40;;;;;;7325393;19;9457;-90
2023/07/29 10:47:27;;;;;;;;;;;23.60;98.20;;;;;;7325428;19;9232;-90
2023/07/29 10:49:57;;;;;;;;;;;23.70;97.90;;;;;;7327296;19;9484;-90
2023/07/29 10:52:42;;;;;;;;;;;23.70;97.70;;;;;;7327007;19;9125;-91
2023/07/29 10:55:36;;;;;;;;;;;23.70;97.30;;;;;;7325162;19;9374;-90
2023/07/29 10:58:17;;;;;;;;;;;23.50;97.60;;;;;;7326514;19;9466;-86
2023/07/29 11:00:48;;;;;;;;;;;23.50;98.50;;;;;;7327543;19;8944;-91
2023/07/29 11:03:17;;;;;;;;;;;23.40;98.50;;;;;;7327883;19;9478;-90
2023/07/29 11:05:46;;;;;;;;;;;23.50;98.40;;;;;;7326587;19;9292;-90
2023/07/29 11:08:29;;;;;;;;;;;23.60;97.90;;;;;;7327380;19;9442;-90
2023/07/29 11:11:09;;;;;;;;;;;23.60;97.70;;;;;;7326229;19;9387;-90
2023/07/29 11:13:39;;;;;;;;;;;23.40;98.30;;;;;;7322147;19;9175;-89
2023/07/29 11:16:09;;;;;;;;;;;23.30;98.40;;;;;;7325067;19;10722;-89
2023/07/29 11:18:39;;;;;;;;;;;23.30;98.50;;;;;;7324669;19;9590;-91
2023/07/29 11:21:08;;;;;;;;;;;23.40;98.40;;;;;;7325048;19;9150;-91
2023/07/29 11:23:39;;;;;;;;;;;23.60;98.10;;;;;;7324230;19;9262;-91
2023/07/29 11:26:11;;;;;;;;;;;23.70;97.90;;;;;;7325002;19;9281;-89
2023/07/29 11:28:42;;;;;;;;;;;23.80;97.50;;;;;;7324012;19;9414;-89
2023/07/29 11:31:11;;;;;;;;;;;24.00;96.80;;;;;;7323744;19;9187;-91
2023/07/29 11:33:42;;;;;;;;;;;23.90;97.30;;;;;;7322507;19;9285;-91
2023/07/29 11:36:21;;;;;;;;;;;23.70;97.00;;;;;;7323672;19;9264;-90
2023/07/29 11:38:50;;;;;;;;;;;23.60;97.60;;;;;;7324203;19;9194;-91
2023/07/29 11:41:25;;;;;;;;;;;23.50;98.00;;;;;;7323854;19;9334;-89
2023/07/29 11:43:54;;;;;;;;;;;23.50;97.70;;;;;;7323977;19;9196;-90
2023/07/29 11:46:26;;;;;;;;;;;23.40;98.00;;;;;;7324324;19;9162;-90
2023/07/29 11:48:57;;;;;;;;;;;23.40;98.20;;;;;;7322659;19;9235;-89
2023/07/29 11:51:28;;;;;;;;;;;23.30;98.60;;;;;;7321837;19;9260;-91
2023/07/29 11:53:57;;;;;;;;;;;23.30;98.50;;;;;;7322796;19;8944;-90
2023/07/29 11:56:30;;;;;;;;;;;23.30;98.80;;;;;;7324040;19;9261;-89
2023/07/29 11:58:59;;;;;;;;;;;23.40;98.30;;;;;;7321949;19;9269;-90
2023/07/29 12:01:30;;;;;;;;;;;23.50;98.10;;;;;;7323840;19;10319;-89
2023/07/29 12:04:00;;;;;;;;;;;23.60;97.50;;;;;;7324145;19;9160;-89
2023/07/29 12:06:31;;;;;;;;;;;23.50;97.80;;;;;;7324199;19;9233;-90
2023/07/29 12:09:00;;;;;;;;;;;23.50;98.20;;;;;;7323822;19;9468;-89
2023/07/29 12:11:33;;;;;;;;;;;23.40;98.20;;;;;;7324130;19;9118;-89
2023/07/29 12:14:03;;;;;;;;;;;23.50;98.30;;;;;;7321135;19;9226;-90
2023/07/29 12:16:34;;;;;;;;;;;23.60;97.90;;;;;;7322734;19;9284;-89
2023/07/29 12:19:03;;;;;;;;;;;23.70;97.40;;;;;;7323619;19;9510;-90
2023/07/29 12:21:32;;;;;;;;;;;23.90;97.00;;;;;;7322962;19;9448;-89
2023/07/29 12:24:01;;;;;;;;;;;23.70;96.70;;;;;;7323369;19;9233;-90
2023/07/29 12:26:33;;;;;;;;;;;23.80;97.30;;;;;;7324987;19;9446;-90
2023/07/29 12:29:13;;;;;;;;;;;23.90;96.80;;;;;;7327195;19;9414;-89
2023/07/29 12:31:42;;;;;;;;;;;23.90;96.60;;;;;;7332567;19;8944;-88
2023/07/29 12:34:11;;;;;;;;;;;24.00;96.00;;;;;;7332005;19;10272;-89
2023/07/29 12:36:46;;;;;;;;;;;24.00;96.10;;;;;;7334596;19;9201;-88
2023/07/29 12:39:23;;;;;;;;;;;24.00;96.10;;;;;;7325280;19;9510;-89
2023/07/29 12:41:57;;;;;;;;;;;23.90;95.90;;;;;;7322644;19;9236;-88
2023/07/29 12:44:27;;;;;;;;;;;23.70;96.40;;;;;;7321577;19;10051;-88
2023/07/29 12:46:56;;;;;;;;;;;23.60;97.00;;;;;;7322134;19;9128;-89
2023/07/29 12:49:25;;;;;;;;;;;23.40;97.40;;;;;;7322428;19;9253;-89
2023/07/29 12:51:57;;;;;;;;;;;23.30;97.90;;;;;;7322880;19;9338;-90
2023/07/29 12:54:26;;;;;;;;;;;23.20;98.30;;;;;;7320749;19;9239;-90
2023/07/29 12:56:57;;;;;;;;;;;23.30;98.30;;;;;;7320446;19;9311;-89
2023/07/29 12:59:27;;;;;;;;;;;23.10;99.90;;;;;;7320728;19;9619;-89
2023/07/29 13:01:56;;;;;;;;;;;23.10;99.00;;;;;;7323921;19;9268;-90
2023/07/29 13:04:26;;;;;;;;;;;23.00;99.90;;;;;;7328618;19;9272;-91
2023/07/29 13:06:59;;;;;;;;;;;23.20;99.70;;;;;;7330962;19;9261;-91
2023/07/29 13:09:28;;;;;;;;;;;23.30;99.80;;;;;;7329809;19;9216;-90
2023/07/29 13:11:59;;;;;;;;;;;23.40;99.90;;;;;;7327786;19;9522;-90
2023/07/29 13:14:28;;;;;;;;;;;23.40;99.20;;;;;;7326732;19;9115;-91
2023/07/29 13:17:00;;;;;;;;;;;23.50;98.70;;;;;;7326727;19;9008;-91
2023/07/29 13:19:29;;;;;;;;;;;23.60;99.10;;;;;;7329290;19;9283;-90
2023/07/29 13:21:59;;;;;;;;;;;23.80;99.60;;;;;;7326556;19;9495;-91
2023/07/29 13:24:27;;;;;;;;;;;23.90;98.00;;;;;;7327910;19;9261;-90
2023/07/29 13:26:59;;;;;;;;;;;23.90;98.00;;;;;;7326776;19;9229;-91
2023/07/29 13:29:28;;;;;;;;;;;23.90;98.20;;;;;;7328167;19;9237;-90
2023/07/29 13:31:54;;;;;;;;;;;23.90;98.50;;;;;;7326468;19;9208;-88
2023/07/29 13:34:23;;;;;;;;;;;23.80;97.80;;;;;;7325522;19;9280;-89
2023/07/29 13:36:52;;;;;;;;;;;23.80;98.30;;;;;;7327048;19;9458;-91
2023/07/29 13:39:21;;;;;;;;;;;23.70;98.70;;;;;;7328257;19;9470;-90
2023/07/29 13:41:50;;;;;;;;;;;23.70;98.90;;;;;;7327535;19;9225;-91
2023/07/29 13:44:22;;;;;;;;;;;23.70;98.60;;;;;;7327802;19;9200;-90
2023/07/29 13:46:50;;;;;;;;;;;23.70;98.50;;;;;;7328349;19;9277;-90
2023/07/29 13:49:20;;;;;;;;;;;23.70;98.50;;;;;;7326960;19;9298;-90
2023/07/29 13:51:49;;;;;;;;;;;23.60;98.70;;;;;;7327638;19;10201;-92
2023/07/29 13:54:18;;;;;;;;;;;23.60;98.80;;;;;;7324698;19;9375;-89
2023/07/29 13:56:47;;;;;;;;;;;23.60;98.60;;;;;;7326968;19;9273;-90
2023/07/29 13:59:15;;;;;;;;;;;23.80;98.10;;;;;;7324433;19;9348;-90
2023/07/29 14:01:47;;;;;;;;;;;23.70;97.90;;;;;;7327408;19;9115;-90
2023/07/29 14:04:16;;;;;;;;;;;23.80;98.00;;;;;;7326248;19;9284;-91
2023/07/29 14:06:46;;;;;;;;;;;23.90;98.00;;;;;;7327295;19;9312;-91
2023/07/29 14:09:15;;;;;;;;;;;24.00;97.50;;;;;;7325896;19;10545;-90
2023/07/29 14:11:44;;;;;;;;;;;24.00;97.30;;;;;;7326209;19;9251;-91
2023/07/29 14:14:13;;;;;;;;;;;23.80;97.40;;;;;;7324115;19;9238;-90
2023/07/29 14:16:41;;;;;;;;;;;23.60;98.70;;;;;;7326342;19;9489;-91
2023/07/29 14:19:15;;;;;;;;;;;23.70;98.40;;;;;;7326291;19;9180;-91
2023/07/29 14:21:44;;;;;;;;;;;23.70;98.40;;;;;;7327671;19;10684;-92
2023/07/29 14:24:13;;;;;;;;;;;23.90;97.70;;;;;;7325833;19;10209;-90
2023/07/29 14:26:42;;;;;;;;;;;23.90;97.70;;;;;;7327202;19;9233;-90
2023/07/29 14:29:11;;;;;;;;;;;23.80;98.00;;;;;;7326944;19;10210;-91
2023/07/29 14:31:40;;;;;;;;;;;23.90;98.20;;;;;;7327463;19;10398;-91
2023/07/29 14:34:09;;;;;;;;;;;23.80;98.10;;;;;;7326836;19;9264;-90
2023/07/29 14:36:40;;;;;;;;;;;23.60;98.50;;;;;;7337116;19;9273;-89
2023/07/29 14:39:11;;;;;;;;;;;22.80;99.50;;;;;;7327347;19;9205;-90
2023/07/29 14:41:40;;;;;;;;;;;22.90;99.90;;;;;;7326786;19;9539;-90
2023/07/29 14:44:09;;;;;;;;;;;22.90;99.90;;;;;;7327522;19;9228;-90
2023/07/29 14:46:38;;;;;;;;;;;22.90;99.90;;;;;;7325401;19;9237;-90